createdAt,value
2023-11-25T00:02:09.972Z,100.00
2023-11-25T00:04:36.564Z,100.00
2023-11-25T00:07:03.134Z,100.00
2023-11-25T00:09:29.654Z,100.00
2023-11-25T00:11:56.134Z,100.00
2023-11-25T00:14:22.664Z,100.00
2023-11-25T00:16:49.270Z,100.00
2023-11-25T00:19:15.841Z,100.00
2023-11-25T00:21:42.329Z,100.00
2023-11-25T00:24:09.056Z,100.00
2023-11-25T00:26:35.618Z,100.00
2023-11-25T00:29:02.068Z,100.00
2023-11-25T00:31:28.587Z,100.00
2023-11-25T00:33:55.153Z,100.00
2023-11-25T00:36:22.237Z,100.00
2023-11-25T00:38:48.711Z,96.79
2023-11-25T00:41:15.136Z,96.69
2023-11-25T00:43:42.250Z,97.20
2023-11-25T00:46:08.976Z,98.18
2023-11-25T00:48:36.873Z,97.46
2023-11-25T00:51:03.685Z,96.99
2023-11-25T00:53:30.237Z,95.91
2023-11-25T00:55:57.189Z,96.78
2023-11-25T00:58:23.741Z,95.65
2023-11-25T01:00:51.236Z,94.07
2023-11-25T01:03:17.809Z,96.40
2023-11-25T01:05:44.321Z,94.87
2023-11-25T01:08:11.063Z,94.75
2023-11-25T01:10:37.588Z,91.63
2023-11-25T01:13:04.242Z,92.09
2023-11-25T01:15:31.032Z,91.87
2023-11-25T01:17:57.512Z,93.14
2023-11-25T01:20:24.804Z,91.36
2023-11-25T01:22:51.434Z,92.23
2023-11-25T01:25:18.261Z,93.07
2023-11-25T01:27:44.848Z,91.80
2023-11-25T01:30:12.102Z,92.00
2023-11-25T01:32:38.673Z,93.64
2023-11-25T01:35:06.471Z,93.70
2023-11-25T01:37:33.010Z,93.65
2023-11-25T01:39:59.624Z,94.76
2023-11-25T01:42:26.099Z,96.97
2023-11-25T01:44:52.916Z,97.83
2023-11-25T01:47:19.570Z,99.62
2023-11-25T01:49:46.161Z,99.27
2023-11-25T01:52:13.019Z,100.00
2023-11-25T01:54:39.900Z,100.00
2023-11-25T01:57:07.930Z,100.00
2023-11-25T01:59:34.922Z,99.65
2023-11-25T02:02:02.432Z,100.00
2023-11-25T02:04:29.298Z,99.84
2023-11-25T02:06:55.985Z,99.51
2023-11-25T02:09:25.799Z,100.00
2023-11-25T02:11:56.609Z,100.00
2023-11-25T02:14:24.085Z,100.00
2023-11-25T02:16:50.949Z,98.06
2023-11-25T02:19:17.516Z,97.92
2023-11-25T02:21:44.061Z,98.82
2023-11-25T02:24:10.560Z,99.20
2023-11-25T02:26:37.138Z,97.54
2023-11-25T02:29:04.931Z,100.00
2023-11-25T02:31:31.603Z,98.75
2023-11-25T02:33:58.166Z,99.26
2023-11-25T02:36:24.975Z,99.91
2023-11-25T02:38:51.548Z,99.37
2023-11-25T02:41:19.475Z,99.95
2023-11-25T02:43:47.414Z,100.00
2023-11-25T02:46:14.005Z,100.00
2023-11-25T02:48:40.514Z,100.00
2023-11-25T02:51:09.621Z,99.33
2023-11-25T02:53:36.195Z,97.86
2023-11-25T02:56:02.783Z,98.49
2023-11-25T02:58:29.347Z,98.57
2023-11-25T03:01:02.717Z,98.16
2023-11-25T03:03:29.533Z,97.11
2023-11-25T03:05:56.085Z,95.96
2023-11-25T03:08:23.861Z,95.73
2023-11-25T03:10:52.259Z,94.94
2023-11-25T03:13:19.191Z,95.83
2023-11-25T03:15:46.482Z,95.75
2023-11-25T03:18:13.233Z,95.32
2023-11-25T03:20:41.030Z,96.59
2023-11-25T03:23:10.876Z,96.86
2023-11-25T03:25:39.023Z,95.63
2023-11-25T03:28:07.085Z,95.44
2023-11-25T03:30:34.052Z,95.85
2023-11-25T03:33:00.777Z,95.86
2023-11-25T03:36:19.700Z,96.13
2023-11-25T03:38:46.130Z,95.28
2023-11-25T03:41:13.837Z,95.35
2023-11-25T03:43:40.446Z,92.89
2023-11-25T03:46:07.246Z,93.25
2023-11-25T03:48:35.973Z,93.22
2023-11-25T03:51:02.499Z,93.30
2023-11-25T03:53:28.979Z,91.39
2023-11-25T03:55:55.484Z,91.54
2023-11-25T03:58:22.049Z,91.93
2023-11-25T04:00:48.551Z,92.60
2023-11-25T04:03:15.062Z,92.48
2023-11-25T04:05:41.527Z,92.37
2023-11-25T04:08:08.021Z,92.86
2023-11-25T04:10:34.575Z,90.77
2023-11-25T04:13:01.086Z,90.76
2023-11-25T04:15:27.604Z,91.70
2023-11-25T04:17:54.976Z,92.80
2023-11-25T04:20:32.931Z,93.73
2023-11-25T04:23:06.756Z,91.94
2023-11-25T04:25:34.728Z,93.06
2023-11-25T04:28:01.603Z,93.32
2023-11-25T04:30:28.331Z,92.81
2023-11-25T04:32:54.877Z,93.46
2023-11-25T04:35:21.334Z,93.59
2023-11-25T04:37:48.537Z,95.42
2023-11-25T04:40:16.031Z,95.42
2023-11-25T04:42:43.333Z,95.20
2023-11-25T04:45:21.492Z,95.45
2023-11-25T04:47:54.370Z,96.97
2023-11-25T04:50:27.448Z,98.20
2023-11-25T04:52:54.458Z,100.00
2023-11-25T04:55:22.860Z,100.00
2023-11-25T04:57:50.062Z,99.85
2023-11-25T05:00:18.350Z,100.00
2023-11-25T05:02:45.062Z,100.00
2023-11-25T05:05:12.720Z,100.00
2023-11-25T05:07:40.097Z,99.82
2023-11-25T05:10:10.268Z,99.56
2023-11-25T05:12:37.916Z,100.00
2023-11-25T05:15:05.148Z,100.00
2023-11-25T05:17:31.823Z,100.00
2023-11-25T05:19:58.382Z,100.00
2023-11-25T05:22:29.069Z,100.00
2023-11-25T05:24:56.045Z,100.00
2023-11-25T05:27:23.730Z,100.00
2023-11-25T05:29:50.769Z,100.00
2023-11-25T05:32:17.338Z,100.00
2023-11-25T05:34:43.838Z,100.00
2023-11-25T05:37:10.376Z,100.00
2023-11-25T05:39:41.139Z,100.00
2023-11-25T05:42:08.569Z,100.00
2023-11-25T05:44:35.029Z,100.00
2023-11-25T05:47:01.579Z,100.00
2023-11-25T05:49:28.155Z,100.00
2023-11-25T05:51:55.084Z,100.00
2023-11-25T05:54:23.688Z,100.00
2023-11-25T05:56:50.201Z,100.00
2023-11-25T05:59:19.647Z,100.00
2023-11-25T06:01:46.882Z,100.00
2023-11-25T06:04:14.260Z,100.00
2023-11-25T06:06:41.474Z,100.00
2023-11-25T06:09:12.638Z,100.00
2023-11-25T06:11:40.246Z,100.00
2023-11-25T06:14:07.095Z,100.00
2023-11-25T06:16:37.105Z,100.00
2023-11-25T06:19:05.250Z,100.00
2023-11-25T06:21:32.497Z,100.00
2023-11-25T06:24:01.396Z,100.00
2023-11-25T06:26:27.948Z,100.00
2023-11-25T06:28:55.895Z,100.00
2023-11-25T06:31:22.656Z,100.00
2023-11-25T06:33:49.179Z,100.00
2023-11-25T06:36:16.479Z,100.00
2023-11-25T06:38:43.007Z,100.00
2023-11-25T06:41:10.077Z,100.00
2023-11-25T06:43:39.010Z,100.00
2023-11-25T06:46:06.372Z,100.00
2023-11-25T06:48:34.070Z,100.00
2023-11-25T06:51:00.888Z,100.00
2023-11-25T06:53:27.472Z,100.00
2023-11-25T06:55:54.015Z,100.00
2023-11-25T06:58:20.766Z,100.00
2023-11-25T07:00:47.368Z,100.00
2023-11-25T07:03:13.859Z,100.00
2023-11-25T07:05:40.430Z,100.00
2023-11-25T07:08:06.986Z,100.00
2023-11-25T07:10:37.346Z,100.00
2023-11-25T07:13:05.768Z,100.00
2023-11-25T07:15:32.732Z,100.00
2023-11-25T07:17:59.472Z,100.00
2023-11-25T07:20:26.385Z,100.00
2023-11-25T07:22:52.894Z,100.00
2023-11-25T07:25:19.999Z,100.00
2023-11-25T07:27:48.395Z,100.00
2023-11-25T07:30:16.828Z,100.00
2023-11-25T07:32:45.165Z,100.00
2023-11-25T07:35:12.588Z,100.00
2023-11-25T07:37:40.242Z,100.00
2023-11-25T07:40:15.659Z,100.00
2023-11-25T07:42:47.230Z,100.00
2023-11-25T07:45:13.949Z,100.00
2023-11-25T07:47:43.115Z,100.00
2023-11-25T07:50:10.352Z,100.00
2023-11-25T07:52:37.440Z,100.00
2023-11-25T07:55:07.807Z,100.00
2023-11-25T07:57:34.545Z,100.00
2023-11-25T08:00:01.488Z,100.00
2023-11-25T08:02:29.245Z,100.00
2023-11-25T08:04:55.810Z,100.00
2023-11-25T08:07:22.416Z,100.00
2023-11-25T08:09:48.906Z,100.00
2023-11-25T08:12:15.440Z,100.00
2023-11-25T08:14:42.153Z,100.00
2023-11-25T08:17:08.763Z,100.00
2023-11-25T08:19:35.310Z,100.00
2023-11-25T08:22:01.761Z,100.00
2023-11-25T08:24:28.221Z,100.00
2023-11-25T08:26:54.757Z,100.00
2023-11-25T08:29:21.473Z,100.00
2023-11-25T08:31:48.241Z,100.00
2023-11-25T08:34:15.740Z,100.00
2023-11-25T08:36:54.885Z,100.00
2023-11-25T08:39:22.509Z,100.00
2023-11-25T08:41:51.695Z,100.00
2023-11-25T08:44:18.298Z,100.00
2023-11-25T08:46:44.931Z,100.00
2023-11-25T08:49:14.233Z,100.00
2023-11-25T08:51:42.154Z,100.00
2023-11-25T08:54:09.362Z,100.00
2023-11-25T08:56:37.332Z,100.00
2023-11-25T08:59:06.821Z,99.51
2023-11-25T09:01:40.913Z,94.90
2023-11-25T09:04:10.974Z,95.40
2023-11-25T09:06:40.601Z,97.71
2023-11-25T09:09:10.593Z,97.95
2023-11-25T09:11:37.933Z,99.08
2023-11-25T09:14:07.329Z,98.47
2023-11-25T09:16:34.739Z,97.17
2023-11-25T09:19:04.386Z,98.66
2023-11-25T09:21:31.268Z,96.39
2023-11-25T09:23:58.628Z,98.26
2023-11-25T09:26:25.765Z,97.78
2023-11-25T09:28:54.153Z,100.00
2023-11-25T09:31:20.795Z,98.27
2023-11-25T09:33:48.197Z,96.52
2023-11-25T09:36:14.898Z,96.50
2023-11-25T09:38:41.372Z,95.10
2023-11-25T09:41:07.852Z,96.57
2023-11-25T09:43:35.695Z,96.97
2023-11-25T09:46:02.738Z,97.06
2023-11-25T09:48:29.349Z,94.07
2023-11-25T09:50:55.850Z,95.42
2023-11-25T09:53:28.066Z,92.99
2023-11-25T09:56:05.489Z,93.57
2023-11-25T09:58:36.838Z,91.10
2023-11-25T10:01:13.392Z,91.82
2023-11-25T10:03:44.154Z,93.37
2023-11-25T10:06:11.007Z,94.18
2023-11-25T10:08:37.437Z,94.49
2023-11-25T10:11:09.093Z,94.04
2023-11-25T10:13:36.973Z,93.92
2023-11-25T10:16:04.369Z,94.37
2023-11-25T10:18:31.709Z,95.67
2023-11-25T10:21:01.344Z,97.12
2023-11-25T10:23:28.355Z,97.30
2023-11-25T10:25:59.656Z,97.09
2023-11-25T10:28:27.569Z,96.84
2023-11-25T10:30:57.731Z,99.00
2023-11-25T10:33:25.429Z,97.36
2023-11-25T10:35:52.744Z,98.11
2023-11-25T10:38:24.374Z,98.10
2023-11-25T10:40:51.041Z,97.76
2023-11-25T10:43:20.732Z,97.28
2023-11-25T10:45:48.296Z,97.98
2023-11-25T10:48:15.234Z,99.04
2023-11-25T10:50:43.699Z,99.37
2023-11-25T10:53:15.149Z,98.13
2023-11-25T10:55:43.842Z,97.80
2023-11-25T10:58:12.581Z,100.00
2023-11-25T11:00:39.108Z,99.77
2023-11-25T11:03:13.753Z,100.00
2023-11-25T11:05:56.824Z,100.00
2023-11-25T11:08:32.720Z,100.00
2023-11-25T11:11:04.439Z,97.48
2023-11-25T11:13:35.190Z,98.02
2023-11-25T11:16:13.874Z,97.42
2023-11-25T11:18:42.780Z,97.22
2023-11-25T11:21:10.756Z,98.12
2023-11-25T11:23:38.393Z,98.71
2023-11-25T11:26:11.425Z,97.88
2023-11-25T11:28:47.152Z,95.33
2023-11-25T11:31:42.335Z,95.90
2023-11-25T11:34:09.211Z,96.30
2023-11-25T11:36:36.218Z,96.83
2023-11-25T11:39:02.747Z,94.98
2023-11-25T11:41:30.736Z,96.16
2023-11-25T11:44:13.333Z,96.85
2023-11-25T11:46:43.618Z,95.54
2023-11-25T11:49:17.324Z,94.40
2023-11-25T11:52:01.700Z,94.71
2023-11-25T11:54:29.554Z,90.49
2023-11-25T11:57:03.400Z,92.39
2023-11-25T12:00:01.041Z,93.52
2023-11-25T12:02:32.239Z,91.41
2023-11-25T12:05:00.220Z,93.79
2023-11-25T12:07:27.772Z,94.51
2023-11-25T12:09:56.296Z,95.80
2023-11-25T12:12:23.557Z,98.39
2023-11-25T12:14:52.053Z,96.23
2023-11-25T12:17:20.150Z,96.09
2023-11-25T12:19:46.751Z,97.83
2023-11-25T12:22:14.874Z,97.82
2023-11-25T12:24:42.357Z,99.71
2023-11-25T12:27:11.783Z,99.68
2023-11-25T12:29:38.252Z,100.00
2023-11-25T12:32:05.075Z,100.00
2023-11-25T12:34:31.737Z,100.00
2023-11-25T12:36:59.876Z,100.00
2023-11-25T12:39:27.724Z,99.90
2023-11-25T12:41:54.540Z,100.00
2023-11-25T12:44:22.059Z,100.00
2023-11-25T12:47:09.935Z,100.00
2023-11-25T12:49:36.761Z,100.00
2023-11-25T12:52:03.418Z,100.00
2023-11-25T12:54:46.012Z,100.00
2023-11-25T12:57:13.644Z,100.00
2023-11-25T12:59:40.318Z,100.00
2023-11-25T13:02:08.745Z,100.00
2023-11-25T13:04:49.249Z,100.00
2023-11-25T13:07:35.896Z,100.00
2023-11-25T13:10:05.169Z,100.00
2023-11-25T13:12:32.686Z,100.00
2023-11-25T13:14:59.459Z,100.00
2023-11-25T13:17:26.216Z,100.00
2023-11-25T13:19:52.991Z,100.00
2023-11-25T13:22:20.380Z,100.00
2023-11-25T13:24:46.899Z,100.00
2023-11-25T13:27:14.181Z,100.00
2023-11-25T13:29:43.252Z,100.00
2023-11-25T13:32:09.667Z,100.00
2023-11-25T13:34:36.177Z,100.00
2023-11-25T13:37:03.765Z,100.00
2023-11-25T13:39:32.359Z,100.00
2023-11-25T13:41:58.902Z,100.00
2023-11-25T13:44:25.417Z,100.00
2023-11-25T13:46:51.940Z,100.00
2023-11-25T13:49:18.468Z,100.00
2023-11-25T13:51:44.909Z,100.00
2023-11-25T13:54:11.456Z,100.00
2023-11-25T13:56:37.931Z,100.00
2023-11-25T13:59:04.432Z,100.00
2023-11-25T14:01:31.825Z,100.00
2023-11-25T14:03:59.987Z,100.00
2023-11-25T14:06:29.457Z,100.00
2023-11-25T14:08:56.112Z,100.00
2023-11-25T14:11:26.011Z,100.00
2023-11-25T14:13:52.904Z,100.00
2023-11-25T14:16:19.596Z,100.00
2023-11-25T14:18:46.096Z,100.00
2023-11-25T14:21:12.644Z,100.00
2023-11-25T14:23:39.323Z,100.00
2023-11-25T14:26:06.071Z,100.00
2023-11-25T14:28:32.788Z,100.00
2023-11-25T14:30:59.315Z,100.00
2023-11-25T14:33:25.865Z,100.00
2023-11-25T14:35:52.384Z,100.00
2023-11-25T14:38:18.893Z,100.00
2023-11-25T14:40:45.510Z,100.00
2023-11-25T14:43:12.039Z,100.00
2023-11-25T14:45:39.890Z,100.00
2023-11-25T14:48:08.551Z,100.00
2023-11-25T14:50:41.598Z,100.00
2023-11-25T14:53:08.265Z,100.00
2023-11-25T14:55:35.629Z,100.00
2023-11-25T14:58:02.256Z,100.00
2023-11-25T15:00:30.928Z,100.00
2023-11-25T15:02:59.208Z,100.00
2023-11-25T15:05:25.817Z,100.00
2023-11-25T15:07:52.420Z,100.00
2023-11-25T15:10:18.920Z,100.00
2023-11-25T15:12:45.518Z,100.00
2023-11-25T15:15:14.089Z,100.00
2023-11-25T15:17:40.705Z,100.00
2023-11-25T15:20:08.313Z,100.00
2023-11-25T15:22:35.142Z,100.00
2023-11-25T15:25:01.747Z,100.00
2023-11-25T15:27:28.275Z,100.00
2023-11-25T15:30:02.211Z,100.00
2023-11-25T15:32:28.791Z,100.00
2023-11-25T15:34:55.435Z,100.00
2023-11-25T15:37:21.944Z,100.00
2023-11-25T15:39:48.468Z,100.00
2023-11-25T15:42:14.968Z,100.00
2023-11-25T15:44:41.970Z,100.00
2023-11-25T15:47:09.776Z,100.00
2023-11-25T15:49:36.595Z,100.00
2023-11-25T15:52:04.705Z,100.00
2023-11-25T15:54:33.574Z,100.00
2023-11-25T15:57:00.596Z,100.00
2023-11-25T15:59:30.537Z,100.00
2023-11-25T16:01:58.428Z,100.00
2023-11-25T16:04:25.192Z,100.00
2023-11-25T16:06:55.044Z,100.00
2023-11-25T16:09:21.802Z,100.00
2023-11-25T16:11:48.355Z,100.00
2023-11-25T16:14:14.881Z,100.00
2023-11-25T16:16:41.476Z,100.00
2023-11-25T16:19:08.148Z,100.00
2023-11-25T16:21:37.879Z,100.00
2023-11-25T16:24:05.841Z,100.00
2023-11-25T16:26:32.415Z,100.00
2023-11-25T16:28:58.908Z,100.00
2023-11-25T16:31:25.573Z,100.00
2023-11-25T16:33:52.432Z,100.00
2023-11-25T16:36:20.036Z,100.00
2023-11-25T16:38:46.550Z,100.00
2023-11-25T16:41:13.353Z,100.00
2023-11-25T16:43:40.118Z,100.00
2023-11-25T16:46:06.941Z,100.00
2023-11-25T16:48:43.703Z,100.00
2023-11-25T16:51:19.319Z,100.00
2023-11-25T16:53:47.673Z,100.00
2023-11-25T16:56:14.544Z,100.00
2023-11-25T16:58:41.112Z,100.00
2023-11-25T17:01:07.689Z,100.00
2023-11-25T17:03:35.912Z,100.00
2023-11-25T17:06:07.181Z,100.00
2023-11-25T17:08:33.963Z,100.00
2023-11-25T17:11:00.596Z,100.00
2023-11-25T17:13:27.211Z,100.00
2023-11-25T17:15:53.928Z,100.00
2023-11-25T17:18:20.374Z,100.00
2023-11-25T17:20:46.972Z,100.00
2023-11-25T17:23:13.573Z,100.00
2023-11-25T17:25:41.371Z,100.00
2023-11-25T17:28:08.814Z,100.00
2023-11-25T17:30:36.551Z,100.00
2023-11-25T17:33:13.571Z,100.00
2023-11-25T17:35:40.353Z,100.00
2023-11-25T17:38:06.817Z,100.00
2023-11-25T17:40:33.612Z,100.00
2023-11-25T17:43:00.097Z,100.00
2023-11-25T17:45:26.554Z,100.00
2023-11-25T17:47:53.029Z,100.00
2023-11-25T17:50:19.768Z,100.00
2023-11-25T17:52:46.284Z,100.00
2023-11-25T17:55:12.778Z,100.00
2023-11-25T17:57:39.286Z,100.00
2023-11-25T18:00:06.527Z,100.00
2023-11-25T18:02:33.162Z,100.00
2023-11-25T18:05:00.910Z,100.00
2023-11-25T18:07:28.658Z,100.00
2023-11-25T18:09:55.493Z,100.00
2023-11-25T18:12:22.006Z,100.00
2023-11-25T18:14:48.542Z,100.00
2023-11-25T18:17:15.694Z,100.00
2023-11-25T18:19:42.284Z,100.00
2023-11-25T18:22:10.515Z,100.00
2023-11-25T18:24:37.523Z,100.00
2023-11-25T18:27:04.097Z,100.00
2023-11-25T18:29:30.811Z,100.00
2023-11-25T18:31:57.335Z,100.00
2023-11-25T18:34:23.797Z,100.00
2023-11-25T18:36:50.279Z,100.00
2023-11-25T18:39:16.704Z,100.00
2023-11-25T18:41:43.308Z,100.00
2023-11-25T18:44:10.283Z,100.00
2023-11-25T18:46:37.194Z,100.00
2023-11-25T18:49:07.158Z,100.00
2023-11-25T18:51:34.734Z,100.00
2023-11-25T18:54:01.251Z,100.00
2023-11-25T18:56:28.213Z,100.00
2023-11-25T18:58:54.689Z,100.00
2023-11-25T19:01:29.179Z,100.00
2023-11-25T19:03:55.801Z,100.00
2023-11-25T19:06:22.636Z,100.00
2023-11-25T19:08:49.124Z,100.00
2023-11-25T19:11:15.661Z,100.00
2023-11-25T19:13:42.323Z,100.00
2023-11-25T19:16:11.575Z,100.00
2023-11-25T19:18:39.361Z,100.00
2023-11-25T19:21:06.152Z,100.00
2023-11-25T19:23:32.645Z,100.00
2023-11-25T19:25:59.189Z,100.00
2023-11-25T19:28:25.746Z,100.00
2023-11-25T19:30:52.232Z,100.00
2023-11-25T19:33:18.809Z,100.00
2023-11-25T19:35:47.014Z,100.00
2023-11-25T19:38:14.570Z,100.00
2023-11-25T19:40:41.123Z,100.00
2023-11-25T19:43:09.602Z,100.00
2023-11-25T19:45:36.112Z,100.00
2023-11-25T19:48:02.626Z,100.00
2023-11-25T19:50:29.205Z,100.00
2023-11-25T19:52:55.713Z,100.00
2023-11-25T19:55:22.330Z,100.00
2023-11-25T19:57:48.797Z,100.00
2023-11-25T20:00:17.161Z,100.00
2023-11-25T20:02:43.826Z,100.00
2023-11-25T20:05:10.347Z,100.00
2023-11-25T20:07:36.892Z,100.00
2023-11-25T20:10:05.089Z,100.00
2023-11-25T20:12:31.834Z,100.00
2023-11-25T20:14:58.373Z,100.00
2023-11-25T20:17:26.610Z,100.00
2023-11-25T20:19:53.480Z,100.00
2023-11-25T20:22:21.429Z,100.00
2023-11-25T20:24:47.922Z,100.00
2023-11-25T20:27:14.645Z,100.00
2023-11-25T20:29:41.091Z,100.00
2023-11-25T20:32:08.558Z,100.00
2023-11-25T20:34:35.317Z,100.00
2023-11-25T20:37:02.920Z,100.00
2023-11-25T20:39:30.013Z,100.00
2023-11-25T20:41:59.975Z,100.00
2023-11-25T20:44:26.545Z,100.00
2023-11-25T20:46:53.074Z,100.00
2023-11-25T20:49:20.270Z,100.00
2023-11-25T20:51:46.799Z,100.00
2023-11-25T20:54:13.396Z,100.00
2023-11-25T20:56:39.896Z,100.00
2023-11-25T20:59:06.639Z,100.00
2023-11-25T21:01:33.182Z,100.00
2023-11-25T21:03:59.729Z,100.00
2023-11-25T21:06:26.463Z,100.00
2023-11-25T21:08:52.941Z,100.00
2023-11-25T21:11:19.388Z,100.00
2023-11-25T21:13:45.919Z,100.00
2023-11-25T21:16:15.179Z,100.00
2023-11-25T21:18:42.176Z,100.00
2023-11-25T21:21:08.663Z,100.00
2023-11-25T21:23:35.166Z,100.00
2023-11-25T21:26:02.659Z,100.00
2023-11-25T21:28:30.444Z,100.00
2023-11-25T21:30:56.872Z,100.00
2023-11-25T21:33:23.442Z,100.00
2023-11-25T21:35:51.106Z,100.00
2023-11-25T21:38:18.655Z,100.00
2023-11-25T21:40:45.477Z,100.00
2023-11-25T21:43:12.066Z,100.00
2023-11-25T21:45:38.791Z,100.00
2023-11-25T21:48:05.649Z,100.00
2023-11-25T21:50:32.284Z,100.00
2023-11-25T21:52:58.948Z,100.00
2023-11-25T21:55:25.515Z,100.00
2023-11-25T21:57:51.967Z,100.00
2023-11-25T22:00:19.278Z,100.00
2023-11-25T22:02:45.951Z,100.00
2023-11-25T22:05:12.938Z,100.00
2023-11-25T22:07:39.619Z,100.00
2023-11-25T22:10:15.584Z,100.00
2023-11-25T22:12:48.333Z,100.00
2023-11-25T22:15:14.887Z,100.00
2023-11-25T22:17:41.403Z,100.00
2023-11-25T22:20:09.293Z,100.00
2023-11-25T22:22:35.757Z,100.00
2023-11-25T22:25:02.282Z,100.00
2023-11-25T22:27:30.385Z,100.00
2023-11-25T22:29:56.869Z,100.00
2023-11-25T22:32:23.576Z,100.00
2023-11-25T22:34:50.135Z,100.00
2023-11-25T22:37:16.762Z,100.00
2023-11-25T22:39:44.835Z,100.00
2023-11-25T22:42:11.297Z,100.00
2023-11-25T22:44:37.782Z,100.00
2023-11-25T22:47:04.418Z,100.00
2023-11-25T22:49:30.949Z,100.00
2023-11-25T22:51:57.425Z,100.00
2023-11-25T22:54:24.404Z,100.00
2023-11-25T22:56:50.936Z,100.00
2023-11-25T22:59:18.706Z,100.00
2023-11-25T23:01:45.976Z,100.00
2023-11-25T23:04:12.674Z,100.00
2023-11-25T23:06:41.870Z,100.00
2023-11-25T23:09:08.430Z,100.00
2023-11-25T23:11:35.632Z,100.00
2023-11-25T23:14:04.947Z,100.00
2023-11-25T23:16:31.710Z,100.00
2023-11-25T23:19:00.139Z,100.00
2023-11-25T23:21:27.810Z,100.00
2023-11-25T23:23:55.506Z,100.00
2023-11-25T23:26:22.197Z,100.00
2023-11-25T23:28:49.560Z,100.00
2023-11-25T23:31:16.165Z,100.00
2023-11-25T23:33:42.888Z,100.00
2023-11-25T23:36:10.591Z,100.00
2023-11-25T23:38:37.173Z,100.00
2023-11-25T23:41:04.016Z,100.00
2023-11-25T23:43:31.417Z,100.00
2023-11-25T23:45:58.206Z,100.00
2023-11-25T23:48:25.071Z,100.00
2023-11-25T23:50:52.460Z,100.00
2023-11-25T23:53:19.066Z,100.00
2023-11-25T23:55:45.687Z,100.00
2023-11-25T23:58:12.515Z,100.00
